createdAt,value
2018-09-15T00:00:43.227Z,70.80
2018-09-15T00:01:45.971Z,70.83
2018-09-15T00:02:48.960Z,71.54
2018-09-15T00:03:52.148Z,71.67
2018-09-15T00:04:55.415Z,71.55
2018-09-15T00:05:58.631Z,71.48
2018-09-15T00:07:02.581Z,71.80
2018-09-15T00:08:05.592Z,71.93
2018-09-15T00:09:09.977Z,71.55
2018-09-15T00:10:13.100Z,71.46
2018-09-15T00:11:16.403Z,71.67
2018-09-15T00:12:19.322Z,72.01
2018-09-15T00:13:23.128Z,71.40
2018-09-15T00:14:25.823Z,71.66
2018-09-15T00:15:28.550Z,72.50
2018-09-15T00:16:32.430Z,72.28
2018-09-15T00:17:35.837Z,71.69
2018-09-15T00:18:39.718Z,72.23
2018-09-15T00:19:42.539Z,71.69
2018-09-15T00:20:45.259Z,72.19
2018-09-15T00:21:47.998Z,71.44
2018-09-15T00:22:50.808Z,72.18
2018-09-15T00:23:54.651Z,72.26
2018-09-15T00:24:57.517Z,72.08
2018-09-15T00:26:00.335Z,72.36
2018-09-15T00:27:03.215Z,72.64
2018-09-15T00:28:05.918Z,71.99
2018-09-15T00:29:08.744Z,72.42
2018-09-15T00:30:12.856Z,72.61
2018-09-15T00:31:15.673Z,72.27
2018-09-15T00:32:18.555Z,72.07
2018-09-15T00:33:21.367Z,72.15
2018-09-15T00:34:24.752Z,71.54
2018-09-15T00:35:28.369Z,72.30
2018-09-15T00:36:31.392Z,72.61
2018-09-15T00:37:34.581Z,72.33
2018-09-15T00:38:37.353Z,71.94
2018-09-15T00:39:40.179Z,71.53
2018-09-15T00:40:42.890Z,72.01
2018-09-15T00:41:45.642Z,72.50
2018-09-15T00:42:48.801Z,72.17
2018-09-15T00:43:51.574Z,71.62
2018-09-15T00:44:54.391Z,71.03
2018-09-15T00:45:57.168Z,72.09
2018-09-15T00:46:59.885Z,71.54
2018-09-15T00:48:02.661Z,71.80
2018-09-15T00:49:05.724Z,72.09
2018-09-15T00:50:08.450Z,72.42
2018-09-15T00:51:11.199Z,72.11
2018-09-15T00:52:13.938Z,71.90
2018-09-15T00:53:16.710Z,72.33
2018-09-15T00:54:19.460Z,72.04
2018-09-15T00:55:22.527Z,72.10
2018-09-15T00:56:25.242Z,71.93
2018-09-15T00:57:28.031Z,72.09
2018-09-15T00:58:30.751Z,71.77
2018-09-15T00:59:33.483Z,71.76
2018-09-15T01:00:36.282Z,71.60
2018-09-15T01:01:39.358Z,71.27
2018-09-15T01:02:42.097Z,71.61
2018-09-15T01:03:44.873Z,71.65
2018-09-15T01:04:47.591Z,72.63
2018-09-15T01:05:50.315Z,72.45
2018-09-15T01:06:53.038Z,71.48
2018-09-15T01:07:56.059Z,71.54
2018-09-15T01:08:59.682Z,71.42
2018-09-15T01:10:02.533Z,71.60
2018-09-15T01:11:05.275Z,71.85
2018-09-15T01:12:08.850Z,71.46
2018-09-15T01:13:11.617Z,71.66
2018-09-15T01:14:14.704Z,71.98
2018-09-15T01:15:18.965Z,71.50
2018-09-15T01:16:21.715Z,71.49
2018-09-15T01:17:24.649Z,71.61
2018-09-15T01:18:27.869Z,72.07
2018-09-15T01:19:31.650Z,72.19
2018-09-15T01:20:34.941Z,72.52
2018-09-15T01:21:37.682Z,72.37
2018-09-15T01:22:40.509Z,72.36
2018-09-15T01:23:43.261Z,73.24
2018-09-15T01:24:46.342Z,72.27
2018-09-15T01:25:49.143Z,72.65
2018-09-15T01:26:52.282Z,72.90
2018-09-15T01:27:56.602Z,72.53
2018-09-15T01:29:00.340Z,72.70
2018-09-15T01:30:03.200Z,72.31
2018-09-15T01:31:05.986Z,72.32
2018-09-15T01:32:08.818Z,71.87
2018-09-15T01:33:12.069Z,71.99
2018-09-15T01:34:16.249Z,72.13
2018-09-15T01:35:18.989Z,72.31
2018-09-15T01:36:24.137Z,71.97
2018-09-15T01:37:26.912Z,71.37
2018-09-15T01:38:29.672Z,72.24
2018-09-15T01:39:33.850Z,72.32
2018-09-15T01:40:36.593Z,72.14
2018-09-15T01:41:39.854Z,71.86
2018-09-15T01:42:43.548Z,72.24
2018-09-15T01:43:46.271Z,72.41
2018-09-15T01:44:49.623Z,71.73
2018-09-15T01:45:52.663Z,72.15
2018-09-15T01:46:55.388Z,71.97
2018-09-15T01:48:02.173Z,71.78
2018-09-15T01:49:05.512Z,72.05
2018-09-15T01:50:10.285Z,71.79
2018-09-15T01:51:13.048Z,72.08
2018-09-15T01:52:16.253Z,72.30
2018-09-15T01:53:18.980Z,72.37
2018-09-15T01:54:22.395Z,72.33
2018-09-15T01:55:25.227Z,72.57
2018-09-15T01:56:27.985Z,72.17
2018-09-15T01:57:31.431Z,72.11
2018-09-15T01:58:35.298Z,72.17
2018-09-15T01:59:38.847Z,72.29
2018-09-15T02:00:41.638Z,71.99
2018-09-15T02:01:45.156Z,72.60
2018-09-15T02:02:48.573Z,72.27
2018-09-15T02:03:51.334Z,73.08
2018-09-15T02:04:54.397Z,73.05
2018-09-15T02:05:57.344Z,73.29
2018-09-15T02:07:00.105Z,73.25
2018-09-15T02:08:03.617Z,73.86
2018-09-15T02:09:07.768Z,73.66
2018-09-15T02:10:11.137Z,73.85
2018-09-15T02:11:14.255Z,74.04
2018-09-15T02:12:17.010Z,73.41
2018-09-15T02:13:19.769Z,74.19
2018-09-15T02:14:22.533Z,73.86
2018-09-15T02:15:25.270Z,74.23
2018-09-15T02:16:28.063Z,74.07
2018-09-15T02:17:32.468Z,74.69
2018-09-15T02:18:35.305Z,74.22
2018-09-15T02:19:38.058Z,74.87
2018-09-15T02:20:41.469Z,74.58
2018-09-15T02:21:44.265Z,74.89
2018-09-15T02:22:47.033Z,75.09
2018-09-15T02:23:50.089Z,74.92
2018-09-15T02:24:52.843Z,75.25
2018-09-15T02:25:55.603Z,75.50
2018-09-15T02:26:58.365Z,75.13
2018-09-15T02:28:01.819Z,75.23
2018-09-15T02:29:05.189Z,75.01
2018-09-15T02:30:09.406Z,75.37
2018-09-15T02:31:13.304Z,74.95
2018-09-15T02:32:17.693Z,74.93
2018-09-15T02:33:20.466Z,75.10
2018-09-15T02:34:23.342Z,75.59
2018-09-15T02:35:26.119Z,75.77
2018-09-15T02:36:29.237Z,75.43
2018-09-15T02:37:31.985Z,75.23
2018-09-15T02:38:34.731Z,75.66
2018-09-15T02:39:37.495Z,75.70
2018-09-15T02:40:40.289Z,75.68
2018-09-15T02:41:44.188Z,75.20
2018-09-15T02:42:47.880Z,75.03
2018-09-15T02:43:50.708Z,75.44
2018-09-15T02:44:53.471Z,75.66
2018-09-15T02:45:57.868Z,75.47
2018-09-15T02:47:01.437Z,75.56
2018-09-15T02:48:04.486Z,75.39
2018-09-15T02:49:07.256Z,75.74
2018-09-15T02:50:10.504Z,75.65
2018-09-15T02:51:13.302Z,75.49
2018-09-15T02:52:16.743Z,75.86
2018-09-15T02:53:19.768Z,75.87
2018-09-15T02:54:24.760Z,75.90
2018-09-15T02:55:27.520Z,75.67
2018-09-15T02:56:30.268Z,76.23
2018-09-15T02:57:33.752Z,76.00
2018-09-15T02:58:36.531Z,76.11
2018-09-15T02:59:40.054Z,76.52
2018-09-15T03:00:43.143Z,75.87
2018-09-15T03:01:45.942Z,75.75
2018-09-15T03:02:48.681Z,76.35
2018-09-15T03:03:51.436Z,76.28
2018-09-15T03:04:54.974Z,76.50
2018-09-15T03:05:57.852Z,76.58
2018-09-15T03:07:02.753Z,77.12
2018-09-15T03:08:05.497Z,76.55
2018-09-15T03:09:08.242Z,77.74
2018-09-15T03:10:11.022Z,77.37
2018-09-15T03:11:13.804Z,78.50
2018-09-15T03:12:17.181Z,78.08
2018-09-15T03:13:20.218Z,78.49
2018-09-15T03:14:23.668Z,78.61
2018-09-15T03:15:26.640Z,79.08
2018-09-15T03:16:30.951Z,79.35
2018-09-15T03:17:34.467Z,78.75
2018-09-15T03:18:38.378Z,79.63
2018-09-15T03:19:41.208Z,79.64
2018-09-15T03:20:44.531Z,79.58
2018-09-15T03:21:47.396Z,79.55
2018-09-15T03:22:50.350Z,79.19
2018-09-15T03:23:53.798Z,79.77
2018-09-15T03:24:57.707Z,79.21
2018-09-15T03:26:00.582Z,79.51
2018-09-15T03:27:04.113Z,79.35
2018-09-15T03:28:07.643Z,79.96
2018-09-15T03:29:11.433Z,80.21
2018-09-15T03:30:14.170Z,80.31
2018-09-15T03:31:17.305Z,79.69
2018-09-15T03:32:20.731Z,79.53
2018-09-15T03:33:23.503Z,79.28
2018-09-15T03:34:26.589Z,79.22
2018-09-15T03:35:30.584Z,79.31
2018-09-15T03:36:33.351Z,78.85
2018-09-15T03:37:36.406Z,79.42
2018-09-15T03:38:39.216Z,79.78
2018-09-15T03:39:42.900Z,79.92
2018-09-15T03:40:45.654Z,79.84
2018-09-15T03:41:48.439Z,79.72
2018-09-15T03:42:51.223Z,80.25
2018-09-15T03:43:54.257Z,79.71
2018-09-15T03:44:57.792Z,80.35
2018-09-15T03:46:00.533Z,80.74
2018-09-15T03:47:03.431Z,79.96
2018-09-15T03:48:07.386Z,80.01
2018-09-15T03:49:10.143Z,80.32
2018-09-15T03:50:14.014Z,80.49
2018-09-15T03:51:16.804Z,80.99
2018-09-15T03:52:19.553Z,80.35
2018-09-15T03:53:22.319Z,80.84
2018-09-15T03:54:25.068Z,80.90
2018-09-15T03:55:28.860Z,80.77
2018-09-15T03:56:32.830Z,81.20
2018-09-15T03:57:37.947Z,80.86
2018-09-15T03:58:41.068Z,81.35
2018-09-15T03:59:44.782Z,81.01
2018-09-15T04:00:49.350Z,80.88
2018-09-15T04:01:52.100Z,80.85
2018-09-15T04:02:55.395Z,80.56
2018-09-15T04:03:58.850Z,81.24
2018-09-15T04:05:01.605Z,81.09
2018-09-15T04:06:05.274Z,81.15
2018-09-15T04:07:08.720Z,81.09
2018-09-15T04:08:11.465Z,80.97
2018-09-15T04:09:14.783Z,81.21
2018-09-15T04:10:17.564Z,80.99
2018-09-15T04:11:21.244Z,81.10
2018-09-15T04:12:25.733Z,81.63
2018-09-15T04:13:31.020Z,81.76
2018-09-15T04:14:33.841Z,82.22
2018-09-15T04:15:37.140Z,82.24
2018-09-15T04:16:39.887Z,81.73
2018-09-15T04:17:42.643Z,81.75
2018-09-15T04:18:45.397Z,81.64
2018-09-15T04:19:48.774Z,81.63
2018-09-15T04:20:53.140Z,82.01
2018-09-15T04:21:57.336Z,82.20
2018-09-15T04:23:00.382Z,81.73
2018-09-15T04:24:03.908Z,81.91
2018-09-15T04:25:06.641Z,81.96
2018-09-15T04:26:09.919Z,81.88
2018-09-15T04:27:12.644Z,81.65
2018-09-15T04:28:15.924Z,82.01
2018-09-15T04:29:18.674Z,82.29
2018-09-15T04:30:21.819Z,82.38
2018-09-15T04:31:24.601Z,82.32
2018-09-15T04:32:30.961Z,82.79
2018-09-15T04:33:34.121Z,82.52
2018-09-15T04:34:36.867Z,82.64
2018-09-15T04:35:40.258Z,82.71
2018-09-15T04:36:42.989Z,82.85
2018-09-15T04:37:45.756Z,82.99
2018-09-15T04:38:49.360Z,82.55
2018-09-15T04:39:52.383Z,82.28
2018-09-15T04:40:57.136Z,82.18
2018-09-15T04:41:59.898Z,81.91
2018-09-15T04:43:02.792Z,82.32
2018-09-15T04:44:05.579Z,82.10
2018-09-15T04:45:08.333Z,82.19
2018-09-15T04:46:13.030Z,82.02
2018-09-15T04:47:15.797Z,82.03
2018-09-15T04:48:19.113Z,82.32
2018-09-15T04:49:25.487Z,82.47
2018-09-15T04:50:28.236Z,82.91
2018-09-15T04:51:32.619Z,82.80
2018-09-15T04:52:35.683Z,82.89
2018-09-15T04:53:38.486Z,82.28
2018-09-15T04:54:41.225Z,82.48
2018-09-15T04:55:44.016Z,82.61
2018-09-15T04:56:46.786Z,82.83
2018-09-15T04:57:50.483Z,82.53
2018-09-15T04:58:53.665Z,82.84
2018-09-15T04:59:56.491Z,82.22
2018-09-15T05:00:59.329Z,82.19
2018-09-15T05:02:02.085Z,82.43
2018-09-15T05:03:05.473Z,82.63
2018-09-15T05:04:08.232Z,82.33
2018-09-15T05:05:12.199Z,82.08
2018-09-15T05:06:15.400Z,82.58
2018-09-15T05:07:18.262Z,82.33
2018-09-15T05:08:21.805Z,82.86
2018-09-15T05:09:24.562Z,82.46
2018-09-15T05:10:28.221Z,82.95
2018-09-15T05:11:31.255Z,82.82
2018-09-15T05:12:34.878Z,82.82
2018-09-15T05:13:37.656Z,82.82
2018-09-15T05:14:40.393Z,82.75
2018-09-15T05:15:43.159Z,82.54
2018-09-15T05:16:47.542Z,82.40
2018-09-15T05:17:50.584Z,82.65
2018-09-15T05:18:53.340Z,82.54
2018-09-15T05:19:56.104Z,82.59
2018-09-15T05:20:58.893Z,82.72
2018-09-15T05:22:01.681Z,82.46
2018-09-15T05:23:04.433Z,82.46
2018-09-15T05:24:07.466Z,82.99
2018-09-15T05:25:10.241Z,82.36
2018-09-15T05:26:13.037Z,83.04
2018-09-15T05:27:15.789Z,82.97
2018-09-15T05:28:18.570Z,82.74
2018-09-15T05:29:22.027Z,82.52
2018-09-15T05:30:25.125Z,82.23
2018-09-15T05:31:29.011Z,82.36
2018-09-15T05:45:37.177Z,82.20
2018-09-15T05:46:40.185Z,81.86
2018-09-15T05:47:43.797Z,82.14
2018-09-15T05:48:46.674Z,81.41
2018-09-15T05:49:49.505Z,81.29
2018-09-15T05:50:52.584Z,80.97
2018-09-15T05:51:55.338Z,81.08
2018-09-15T05:52:58.124Z,80.73
2018-09-15T05:54:00.920Z,80.64
2018-09-15T05:55:03.679Z,80.95
2018-09-15T05:56:06.466Z,80.87
2018-09-15T05:57:09.501Z,80.87
2018-09-15T05:58:12.252Z,81.13
2018-09-15T05:59:14.997Z,80.47
2018-09-15T06:00:17.866Z,80.21
2018-09-15T06:01:20.715Z,80.50
2018-09-15T06:02:23.769Z,80.77
2018-09-15T06:03:26.793Z,80.98
2018-09-15T06:04:29.562Z,80.21
2018-09-15T06:05:32.310Z,80.76
2018-09-15T06:06:36.438Z,80.70
2018-09-15T06:07:42.248Z,80.52
2018-09-15T06:08:45.077Z,80.84
2018-09-15T06:09:48.204Z,80.51
2018-09-15T06:10:50.941Z,80.75
2018-09-15T06:11:53.765Z,80.11
2018-09-15T06:12:56.556Z,79.71
2018-09-15T06:13:59.299Z,79.76
2018-09-15T06:15:02.061Z,79.36
2018-09-15T06:16:05.162Z,78.80
2018-09-15T06:17:07.943Z,79.34
2018-09-15T06:18:10.704Z,79.95
2018-09-15T06:19:13.445Z,79.26
2018-09-15T06:20:16.197Z,78.83
2018-09-15T06:21:18.950Z,79.16
2018-09-15T06:22:22.255Z,79.04
2018-09-15T06:23:25.045Z,78.90
2018-09-15T06:24:27.837Z,78.78
2018-09-15T06:25:30.643Z,78.66
2018-09-15T06:26:33.994Z,78.50
2018-09-15T06:27:37.670Z,77.91
2018-09-15T06:28:40.826Z,77.82
2018-09-15T06:29:43.569Z,78.20
2018-09-15T06:30:46.317Z,78.50
2018-09-15T06:31:49.168Z,78.35
2018-09-15T06:32:53.625Z,78.26
2018-09-15T06:33:56.459Z,78.30
2018-09-15T06:34:59.564Z,78.62
2018-09-15T06:36:02.315Z,78.32
2018-09-15T06:37:05.679Z,78.10
2018-09-15T06:38:08.509Z,77.75
2018-09-15T06:39:12.584Z,77.61
2018-09-15T06:40:15.393Z,77.42
2018-09-15T06:41:18.436Z,77.30
2018-09-15T06:42:21.475Z,77.27
2018-09-15T06:43:24.251Z,77.17
2018-09-15T06:44:27.003Z,76.62
2018-09-15T06:45:29.846Z,74.72
2018-09-15T06:46:32.597Z,72.84
2018-09-15T06:47:35.839Z,72.25
2018-09-15T06:48:38.595Z,71.93
2018-09-15T06:49:41.382Z,71.77
2018-09-15T06:50:44.231Z,71.25
2018-09-15T06:51:47.759Z,71.67
2018-09-15T06:52:50.484Z,71.62
2018-09-15T06:53:53.636Z,70.75
2018-09-15T06:54:56.392Z,71.58
2018-09-15T06:55:59.150Z,71.23
2018-09-15T06:57:01.907Z,71.65
2018-09-15T06:58:04.703Z,71.66
2018-09-15T06:59:08.375Z,72.34
2018-09-15T07:00:12.440Z,72.40
2018-09-15T07:01:15.259Z,72.46
2018-09-15T07:02:18.822Z,73.46
2018-09-15T07:03:21.585Z,73.84
2018-09-15T07:04:25.782Z,73.60
2018-09-15T07:05:30.642Z,73.71
2018-09-15T07:06:34.631Z,73.55
2018-09-15T07:07:37.423Z,74.49
2018-09-15T07:08:40.316Z,75.02
2018-09-15T07:09:43.894Z,74.41
2018-09-15T07:10:47.414Z,75.54
2018-09-15T07:11:54.597Z,75.68
2018-09-15T07:13:00.277Z,74.89
2018-09-15T07:14:03.128Z,75.47
2018-09-15T07:15:05.882Z,75.56
2018-09-15T07:16:08.653Z,75.39
2018-09-15T07:17:11.394Z,75.14
2018-09-15T07:18:14.291Z,75.78
2018-09-15T07:19:17.117Z,74.83
2018-09-15T07:20:19.880Z,74.84
2018-09-15T07:21:22.610Z,75.41
2018-09-15T07:22:26.491Z,74.98
2018-09-15T07:23:29.281Z,74.90
2018-09-15T07:24:33.120Z,74.61
2018-09-15T07:25:35.853Z,74.88
2018-09-15T07:26:38.655Z,74.54
2018-09-15T07:27:41.454Z,74.55
2018-09-15T07:28:44.230Z,74.76
2018-09-15T07:29:47.230Z,74.95
2018-09-15T07:30:51.261Z,73.63
2018-09-15T07:31:54.713Z,73.51
2018-09-15T07:32:57.845Z,73.81
2018-09-15T07:34:01.603Z,74.02
2018-09-15T07:35:05.424Z,73.86
2018-09-15T07:36:08.454Z,73.74
2018-09-15T07:37:11.676Z,73.48
2018-09-15T07:38:14.710Z,73.57
2018-09-15T07:39:17.865Z,73.51
2018-09-15T07:40:23.802Z,73.95
2018-09-15T07:41:26.900Z,73.25
2018-09-15T07:42:29.642Z,72.50
2018-09-15T07:43:33.349Z,72.91
2018-09-15T07:44:36.142Z,72.25
2018-09-15T07:45:38.890Z,71.66
2018-09-15T07:46:42.550Z,71.57
2018-09-15T07:47:45.492Z,71.90
2018-09-15T07:48:50.368Z,71.63
2018-09-15T07:49:54.290Z,71.84
2018-09-15T07:51:00.188Z,71.87
2018-09-15T07:52:03.909Z,70.85
2018-09-15T07:53:06.678Z,71.11
2018-09-15T07:54:11.846Z,71.15
2018-09-15T07:55:15.310Z,71.83
2018-09-15T07:56:21.993Z,71.23
2018-09-15T07:57:24.849Z,70.96
2018-09-15T07:58:29.301Z,70.06
2018-09-15T07:59:33.492Z,69.28
2018-09-15T08:00:36.216Z,70.19
2018-09-15T08:01:39.676Z,70.22
2018-09-15T08:02:42.778Z,69.67
2018-09-15T08:03:46.842Z,68.92
2018-09-15T08:04:50.147Z,66.09
2018-09-15T08:05:53.539Z,66.60
2018-09-15T08:06:56.330Z,63.45
2018-09-15T08:08:00.199Z,62.06
2018-09-15T08:09:02.989Z,61.40
2018-09-15T08:10:05.719Z,59.04
2018-09-15T08:11:09.491Z,61.60
2018-09-15T08:12:12.600Z,64.79
2018-09-15T08:13:15.457Z,66.76
2018-09-15T08:14:19.718Z,68.80
2018-09-15T08:15:23.105Z,69.61
2018-09-15T08:16:25.846Z,69.73
2018-09-15T08:17:28.643Z,70.54
2018-09-15T08:18:32.216Z,72.05
2018-09-15T08:19:36.853Z,72.74
2018-09-15T08:20:41.491Z,73.37
2018-09-15T08:21:45.530Z,75.60
2018-09-15T08:22:54.516Z,74.55
2018-09-15T08:23:57.378Z,73.91
2018-09-15T08:25:00.940Z,74.85
2018-09-15T08:26:04.590Z,74.71
2018-09-15T08:27:07.935Z,74.38
2018-09-15T08:28:10.671Z,74.08
2018-09-15T08:29:13.696Z,73.50
2018-09-15T08:30:16.510Z,72.95
2018-09-15T08:31:19.270Z,74.88
2018-09-15T08:32:22.044Z,75.78
2018-09-15T08:33:25.923Z,76.34
2018-09-15T08:34:28.705Z,75.24
2018-09-15T08:35:31.465Z,75.78
2018-09-15T08:36:34.248Z,75.75
2018-09-15T08:37:38.481Z,76.99
2018-09-15T08:38:48.793Z,76.05
2018-09-15T08:39:52.188Z,76.31
2018-09-15T08:40:54.946Z,76.94
2018-09-15T08:41:57.701Z,76.24
2018-09-15T08:43:00.457Z,74.66
2018-09-15T08:44:03.500Z,75.55
2018-09-15T08:45:06.755Z,74.32
2018-09-15T08:46:10.221Z,74.05
2018-09-15T08:47:13.760Z,73.50
2018-09-15T08:48:16.769Z,74.23
2018-09-15T08:49:19.605Z,73.56
2018-09-15T08:50:23.290Z,72.71
2018-09-15T08:51:27.479Z,73.77
2018-09-15T08:52:30.248Z,72.79
2018-09-15T08:53:36.501Z,73.96
2018-09-15T08:54:39.309Z,72.76
2018-09-15T08:55:45.419Z,73.37
2018-09-15T08:56:48.358Z,73.07
2018-09-15T08:57:51.519Z,71.61
2018-09-15T08:58:55.086Z,71.02
2018-09-15T08:59:58.130Z,71.16
2018-09-15T09:01:01.215Z,71.22
2018-09-15T09:02:06.362Z,72.26
2018-09-15T09:03:09.841Z,72.58
2018-09-15T09:04:13.268Z,72.94
2018-09-15T09:05:17.272Z,73.48
2018-09-15T09:06:20.714Z,73.38
2018-09-15T09:07:23.674Z,72.58
2018-09-15T09:08:26.537Z,71.42
2018-09-15T09:09:30.108Z,71.76
2018-09-15T09:10:33.907Z,72.33
2018-09-15T09:11:36.718Z,72.25
2018-09-15T09:12:39.471Z,72.32
2018-09-15T09:13:42.356Z,71.99
2018-09-15T09:14:45.169Z,71.20
2018-09-15T09:15:47.930Z,69.66
2018-09-15T09:16:51.003Z,67.30
2018-09-15T09:17:54.531Z,66.08
2018-09-15T09:18:57.374Z,63.95
2018-09-15T09:20:00.237Z,62.95
2018-09-15T09:21:05.031Z,60.67
2018-09-15T09:22:08.672Z,60.10
2018-09-15T09:23:12.441Z,59.25
2018-09-15T09:24:17.538Z,59.29
2018-09-15T09:25:21.217Z,60.90
2018-09-15T09:26:25.303Z,60.96
2018-09-15T09:27:28.760Z,64.10
2018-09-15T09:28:32.018Z,64.56
2018-09-15T09:29:35.110Z,66.64
2018-09-15T09:30:39.603Z,67.44
2018-09-15T09:31:42.681Z,67.55
2018-09-15T09:32:45.497Z,66.62
2018-09-15T09:33:48.304Z,65.45
2018-09-15T09:34:51.954Z,64.43
2018-09-15T09:35:56.337Z,64.92
2018-09-15T09:36:59.768Z,65.64
2018-09-15T09:38:02.608Z,65.18
2018-09-15T09:39:06.455Z,65.74
2018-09-15T09:40:09.237Z,65.69
2018-09-15T09:41:12.769Z,65.52
2018-09-15T09:42:19.139Z,65.34
2018-09-15T09:43:23.693Z,66.28
2018-09-15T09:44:27.189Z,67.14
2018-09-15T09:45:30.632Z,66.05
2018-09-15T09:46:33.639Z,65.94
2018-09-15T09:47:37.760Z,65.23
2018-09-15T09:48:40.518Z,65.32
2018-09-15T09:49:43.250Z,64.28
2018-09-15T09:50:46.280Z,65.81
2018-09-15T09:51:49.292Z,64.83
2018-09-15T09:52:52.119Z,64.94
2018-09-15T09:53:55.383Z,64.49
2018-09-15T09:54:58.117Z,63.94
2018-09-15T09:56:00.897Z,62.75
2018-09-15T09:57:03.721Z,61.46
2018-09-15T09:58:08.542Z,60.44
2018-09-15T09:59:12.246Z,58.76
2018-09-15T10:00:20.461Z,60.50
2018-09-15T10:01:24.323Z,60.37
2018-09-15T10:02:27.796Z,59.03
2018-09-15T10:03:32.060Z,60.94
2018-09-15T10:04:36.442Z,59.94
2018-09-15T10:05:39.269Z,59.46
2018-09-15T10:06:42.528Z,57.37
2018-09-15T10:07:45.301Z,59.58
2018-09-15T10:08:48.048Z,61.25
2018-09-15T10:09:50.844Z,61.70
2018-09-15T10:10:53.694Z,62.40
2018-09-15T10:11:56.429Z,63.61
2018-09-15T10:13:00.782Z,63.33
2018-09-15T10:14:06.641Z,63.84
2018-09-15T10:15:09.401Z,63.19
2018-09-15T10:16:12.233Z,62.79
2018-09-15T10:17:15.196Z,63.48
2018-09-15T10:18:19.002Z,64.44
2018-09-15T10:19:24.280Z,64.77
2018-09-15T10:20:28.584Z,64.95
2018-09-15T10:21:32.696Z,64.92
2018-09-15T10:22:35.898Z,65.62
2018-09-15T10:23:40.362Z,64.76
2018-09-15T10:24:43.242Z,64.74
2018-09-15T10:25:46.378Z,64.89
2018-09-15T10:26:49.273Z,64.52
2018-09-15T10:27:52.090Z,63.50
2018-09-15T10:28:55.182Z,61.79
2018-09-15T10:29:58.853Z,59.49
2018-09-15T10:31:02.401Z,57.92
2018-09-15T10:32:05.613Z,58.07
2018-09-15T10:44:44.581Z,62.03
2018-09-15T10:45:47.651Z,61.96
2018-09-15T10:46:50.466Z,60.70
2018-09-15T10:47:53.346Z,60.98
2018-09-15T10:48:56.776Z,61.10
2018-09-15T10:49:59.890Z,61.79
2018-09-15T10:51:03.814Z,60.80
2018-09-15T10:52:06.549Z,60.37
2018-09-15T10:53:10.925Z,60.57
2018-09-15T10:54:13.766Z,60.62
2018-09-15T10:55:17.276Z,59.39
2018-09-15T10:56:21.987Z,58.21
2018-09-15T10:57:24.754Z,55.51
2018-09-15T10:58:30.628Z,55.69
2018-09-15T10:59:35.008Z,53.87
2018-09-15T11:00:38.668Z,53.34
2018-09-15T11:01:41.601Z,52.78
2018-09-15T11:03:52.311Z,52.41
2018-09-15T11:04:56.101Z,51.26
2018-09-15T11:07:10.464Z,51.58
2018-09-15T11:08:15.931Z,52.20
2018-09-15T11:09:20.015Z,51.79
2018-09-15T11:10:36.331Z,52.67
2018-09-15T11:11:40.869Z,51.39
2018-09-15T11:12:43.901Z,50.82
2018-09-15T11:13:46.771Z,50.56
2018-09-15T11:14:50.496Z,50.16
2018-09-15T11:15:54.356Z,52.02
2018-09-15T11:16:59.930Z,52.75
2018-09-15T11:18:06.120Z,53.31
2018-09-15T11:19:09.660Z,53.93
2018-09-15T11:20:12.681Z,53.88
2018-09-15T11:21:15.767Z,54.11
2018-09-15T11:22:19.550Z,53.83
2018-09-15T11:23:23.942Z,55.25
2018-09-15T11:24:27.432Z,58.03
2018-09-15T11:25:30.419Z,57.18
2018-09-15T11:26:36.984Z,57.09
2018-09-15T11:27:41.779Z,57.53
2018-09-15T11:28:46.710Z,57.91
2018-09-15T11:29:49.496Z,58.22
2018-09-15T11:30:53.226Z,58.49
2018-09-15T11:31:56.633Z,57.83
2018-09-15T11:32:59.807Z,58.58
2018-09-15T11:34:02.774Z,58.96
2018-09-15T11:35:07.880Z,59.62
2018-09-15T11:36:10.704Z,60.30
2018-09-15T11:37:13.620Z,59.46
2018-09-15T11:38:17.654Z,59.66
2018-09-15T11:39:21.459Z,58.79
2018-09-15T11:40:24.943Z,59.15
2018-09-15T11:41:33.513Z,57.91
2018-09-15T11:42:37.255Z,58.61
2018-09-15T11:43:41.168Z,58.96
2018-09-15T11:44:45.798Z,58.30
2018-09-15T11:45:50.087Z,58.57
2018-09-15T11:46:56.289Z,58.29
2018-09-15T11:47:59.834Z,58.39
2018-09-15T11:49:04.693Z,58.85
2018-09-15T11:50:08.281Z,58.96
2018-09-15T11:51:13.387Z,58.24
2018-09-15T11:52:17.709Z,58.76
2018-09-15T11:53:25.995Z,58.35
2018-09-15T11:54:29.466Z,59.66
2018-09-15T11:55:33.243Z,60.51
2018-09-15T11:56:40.497Z,60.87
2018-09-15T11:57:43.344Z,59.70
2018-09-15T11:58:47.319Z,59.36
2018-09-15T11:59:50.206Z,59.37
2018-09-15T12:00:55.974Z,60.74
2018-09-15T12:01:59.392Z,59.41
2018-09-15T12:03:03.413Z,59.88
2018-09-15T12:04:07.743Z,59.26
2018-09-15T12:05:11.888Z,59.12
2018-09-15T12:06:14.683Z,59.65
2018-09-15T12:07:17.566Z,59.77
2018-09-15T12:08:20.458Z,59.30
2018-09-15T12:09:23.260Z,60.07
2018-09-15T12:10:26.104Z,59.03
2018-09-15T12:11:29.682Z,58.83
2018-09-15T12:12:35.214Z,58.93
2018-09-15T12:13:38.277Z,59.11
2018-09-15T12:14:41.084Z,60.07
2018-09-15T12:15:43.838Z,60.26
2018-09-15T12:16:47.272Z,59.59
2018-09-15T12:17:52.084Z,59.65
2018-09-15T12:18:55.645Z,60.53
2018-09-15T12:19:58.509Z,59.73
2018-09-15T12:21:03.590Z,61.27
2018-09-15T12:22:06.420Z,61.21
2018-09-15T12:23:09.217Z,61.14
2018-09-15T12:24:13.260Z,60.85
2018-09-15T12:25:16.050Z,60.83
2018-09-15T12:26:18.839Z,61.13
2018-09-15T12:27:22.526Z,60.96
2018-09-15T12:28:25.323Z,61.43
2018-09-15T12:29:28.112Z,61.54
2018-09-15T12:30:30.892Z,60.12
2018-09-15T12:31:33.925Z,60.54
2018-09-15T12:32:37.442Z,60.13
2018-09-15T12:33:40.249Z,61.20
2018-09-15T12:34:43.029Z,60.21
2018-09-15T12:35:46.717Z,60.14
2018-09-15T12:36:49.534Z,60.65
2018-09-15T12:37:52.300Z,62.02
2018-09-15T12:38:55.060Z,62.24
2018-09-15T12:39:57.829Z,62.37
2018-09-15T12:41:00.895Z,61.30
2018-09-15T12:42:04.299Z,62.04
2018-09-15T12:43:07.847Z,61.36
2018-09-15T12:44:11.238Z,61.61
2018-09-15T12:45:14.709Z,61.21
2018-09-15T12:46:18.187Z,61.71
2018-09-15T12:47:20.955Z,62.25
2018-09-15T12:48:24.106Z,62.66
2018-09-15T12:49:29.620Z,62.35
2018-09-15T12:50:32.459Z,62.44
2018-09-15T12:51:35.222Z,63.15
2018-09-15T12:52:41.465Z,62.03
2018-09-15T12:53:44.725Z,62.75
2018-09-15T12:54:48.587Z,62.91
2018-09-15T12:55:54.468Z,62.76
2018-09-15T12:56:57.385Z,63.46
2018-09-15T12:58:00.212Z,62.42
2018-09-15T12:59:05.373Z,63.30
2018-09-15T13:00:08.185Z,63.36
2018-09-15T13:01:11.270Z,63.24
2018-09-15T13:02:15.207Z,62.91
2018-09-15T13:03:20.130Z,62.59
2018-09-15T13:04:22.953Z,62.33
2018-09-15T13:05:27.099Z,63.16
2018-09-15T13:06:30.761Z,62.29
2018-09-15T13:07:34.628Z,62.71
2018-09-15T13:08:40.042Z,62.20
2018-09-15T13:09:44.016Z,62.10
2018-09-15T13:10:47.818Z,61.53
2018-09-15T13:11:50.697Z,62.10
2018-09-15T13:12:55.002Z,62.32
2018-09-15T13:13:58.618Z,61.49
2018-09-15T13:15:01.488Z,61.69
2018-09-15T13:16:06.265Z,61.49
2018-09-15T13:17:09.358Z,60.94
2018-09-15T13:18:12.512Z,60.80
2018-09-15T13:19:17.705Z,60.32
2018-09-15T13:20:21.609Z,60.20
2018-09-15T13:21:25.858Z,60.73
2018-09-15T13:22:28.653Z,59.47
2018-09-15T13:23:31.471Z,59.45
2018-09-15T13:24:34.282Z,60.38
2018-09-15T13:25:37.719Z,60.54
2018-09-15T13:26:41.488Z,59.79
2018-09-15T13:27:44.228Z,60.18
2018-09-15T13:28:49.658Z,60.00
2018-09-15T13:29:52.679Z,59.67
2018-09-15T13:30:55.456Z,59.24
2018-09-15T13:31:58.821Z,59.44
2018-09-15T13:33:02.405Z,58.69
2018-09-15T13:34:05.230Z,59.35
2018-09-15T13:35:09.552Z,58.78
2018-09-15T13:36:13.076Z,60.03
2018-09-15T13:37:16.508Z,59.89
2018-09-15T13:38:19.346Z,58.13
2018-09-15T13:39:22.420Z,59.31
2018-09-15T13:40:25.161Z,58.73
2018-09-15T13:41:27.938Z,57.22
2018-09-15T13:42:30.710Z,55.93
2018-09-15T13:43:33.857Z,56.23
2018-09-15T13:44:36.976Z,56.30
2018-09-15T13:45:40.955Z,56.00
2018-09-15T13:46:43.731Z,54.70
2018-09-15T13:47:46.598Z,54.30
2018-09-15T13:48:49.639Z,54.82
2018-09-15T13:49:52.443Z,54.50
2018-09-15T13:50:55.978Z,52.93
2018-09-15T13:52:00.160Z,52.18
2018-09-15T13:53:04.010Z,52.86
2018-09-15T13:54:06.814Z,52.68
2018-09-15T13:55:10.355Z,54.18
2018-09-15T13:56:13.188Z,55.47
2018-09-15T13:57:15.938Z,53.87
2018-09-15T13:58:20.645Z,54.80
2018-09-15T13:59:23.394Z,54.13
2018-09-15T14:00:28.658Z,54.08
2018-09-15T14:01:31.451Z,54.26
2018-09-15T14:02:37.556Z,54.04
2018-09-15T14:03:40.312Z,53.20